sensor_id;sensor_type;location;lat;lon;timestamp;P1;durP1;ratioP1;P2;durP2;ratioP2
18947;SDS011;9607;51.600;7.558;2023-06-14T00:00:40;5.47;;;3.60;;
18947;SDS011;9607;51.600;7.558;2023-06-14T00:03:09;5.25;;;3.05;;
18947;SDS011;9607;51.600;7.558;2023-06-14T00:05:36;5.13;;;3.45;;
18947;SDS011;9607;51.600;7.558;2023-06-14T00:08:08;4.15;;;3.25;;
18947;SDS011;9607;51.600;7.558;2023-06-14T00:10:35;4.55;;;3.72;;
18947;SDS011;9607;51.600;7.558;2023-06-14T00:13:04;4.88;;;3.25;;
18947;SDS011;9607;51.600;7.558;2023-06-14T00:15:32;6.82;;;3.30;;
18947;SDS011;9607;51.600;7.558;2023-06-14T00:18:00;5.55;;;3.30;;
18947;SDS011;9607;51.600;7.558;2023-06-14T00:20:29;6.55;;;3.33;;
18947;SDS011;9607;51.600;7.558;2023-06-14T00:22:57;5.93;;;2.92;;
18947;SDS011;9607;51.600;7.558;2023-06-14T00:25:25;4.22;;;3.10;;
18947;SDS011;9607;51.600;7.558;2023-06-14T00:27:52;5.60;;;3.20;;
18947;SDS011;9607;51.600;7.558;2023-06-14T00:30:19;8.50;;;3.17;;
18947;SDS011;9607;51.600;7.558;2023-06-14T00:32:46;5.93;;;3.15;;
18947;SDS011;9607;51.600;7.558;2023-06-14T00:35:14;4.28;;;3.00;;
18947;SDS011;9607;51.600;7.558;2023-06-14T00:37:42;3.72;;;2.67;;
18947;SDS011;9607;51.600;7.558;2023-06-14T00:40:09;4.05;;;2.90;;
18947;SDS011;9607;51.600;7.558;2023-06-14T00:42:36;5.20;;;3.05;;
18947;SDS011;9607;51.600;7.558;2023-06-14T00:45:04;3.58;;;2.78;;
18947;SDS011;9607;51.600;7.558;2023-06-14T00:47:31;3.20;;;2.78;;
18947;SDS011;9607;51.600;7.558;2023-06-14T00:49:58;4.50;;;3.28;;
18947;SDS011;9607;51.600;7.558;2023-06-14T00:52:26;3.33;;;2.85;;
18947;SDS011;9607;51.600;7.558;2023-06-14T00:54:55;4.32;;;2.83;;
18947;SDS011;9607;51.600;7.558;2023-06-14T00:57:22;4.93;;;3.33;;
18947;SDS011;9607;51.600;7.558;2023-06-14T00:59:49;4.47;;;2.72;;
18947;SDS011;9607;51.600;7.558;2023-06-14T01:02:17;8.95;;;3.03;;
18947;SDS011;9607;51.600;7.558;2023-06-14T01:04:45;4.85;;;2.90;;
18947;SDS011;9607;51.600;7.558;2023-06-14T01:07:15;4.32;;;2.63;;
18947;SDS011;9607;51.600;7.558;2023-06-14T01:09:52;3.67;;;2.45;;
18947;SDS011;9607;51.600;7.558;2023-06-14T01:12:34;5.32;;;2.72;;
18947;SDS011;9607;51.600;7.558;2023-06-14T01:15:06;3.33;;;2.70;;
18947;SDS011;9607;51.600;7.558;2023-06-14T01:17:34;5.25;;;2.70;;
18947;SDS011;9607;51.600;7.558;2023-06-14T01:20:09;9.60;;;3.20;;
18947;SDS011;9607;51.600;7.558;2023-06-14T01:22:45;3.97;;;2.78;;
18947;SDS011;9607;51.600;7.558;2023-06-14T01:25:17;4.97;;;2.60;;
18947;SDS011;9607;51.600;7.558;2023-06-14T01:27:48;3.88;;;2.65;;
18947;SDS011;9607;51.600;7.558;2023-06-14T01:30:17;3.40;;;2.50;;
18947;SDS011;9607;51.600;7.558;2023-06-14T01:32:46;4.97;;;2.50;;
18947;SDS011;9607;51.600;7.558;2023-06-14T01:35:15;3.53;;;2.40;;
18947;SDS011;9607;51.600;7.558;2023-06-14T01:37:43;2.78;;;2.50;;
18947;SDS011;9607;51.600;7.558;2023-06-14T01:40:14;4.35;;;2.83;;
18947;SDS011;9607;51.600;7.558;2023-06-14T01:42:41;2.85;;;2.40;;
18947;SDS011;9607;51.600;7.558;2023-06-14T01:45:10;3.50;;;2.70;;
18947;SDS011;9607;51.600;7.558;2023-06-14T01:47:37;4.10;;;2.38;;
18947;SDS011;9607;51.600;7.558;2023-06-14T01:50:06;4.20;;;2.65;;
18947;SDS011;9607;51.600;7.558;2023-06-14T01:52:33;4.47;;;3.05;;
18947;SDS011;9607;51.600;7.558;2023-06-14T01:55:01;8.52;;;2.78;;
18947;SDS011;9607;51.600;7.558;2023-06-14T01:57:28;5.07;;;2.55;;
18947;SDS011;9607;51.600;7.558;2023-06-14T01:59:55;4.50;;;3.00;;
18947;SDS011;9607;51.600;7.558;2023-06-14T02:02:22;4.80;;;2.45;;
18947;SDS011;9607;51.600;7.558;2023-06-14T02:04:49;4.55;;;2.38;;
18947;SDS011;9607;51.600;7.558;2023-06-14T02:07:16;3.15;;;2.60;;
18947;SDS011;9607;51.600;7.558;2023-06-14T02:09:43;6.65;;;2.67;;
18947;SDS011;9607;51.600;7.558;2023-06-14T02:12:11;4.15;;;2.40;;
18947;SDS011;9607;51.600;7.558;2023-06-14T02:14:38;3.90;;;2.55;;
18947;SDS011;9607;51.600;7.558;2023-06-14T02:17:05;2.30;;;2.10;;
18947;SDS011;9607;51.600;7.558;2023-06-14T02:19:32;3.47;;;2.65;;
18947;SDS011;9607;51.600;7.558;2023-06-14T02:22:00;2.70;;;2.20;;
18947;SDS011;9607;51.600;7.558;2023-06-14T02:24:27;2.20;;;2.00;;
18947;SDS011;9607;51.600;7.558;2023-06-14T02:26:53;3.63;;;2.50;;
18947;SDS011;9607;51.600;7.558;2023-06-14T02:29:22;4.72;;;2.65;;
18947;SDS011;9607;51.600;7.558;2023-06-14T02:31:49;3.53;;;2.30;;
18947;SDS011;9607;51.600;7.558;2023-06-14T02:34:15;4.35;;;2.60;;
18947;SDS011;9607;51.600;7.558;2023-06-14T02:36:43;4.07;;;2.65;;
18947;SDS011;9607;51.600;7.558;2023-06-14T02:39:10;5.13;;;2.50;;
18947;SDS011;9607;51.600;7.558;2023-06-14T02:41:37;2.30;;;2.03;;
18947;SDS011;9607;51.600;7.558;2023-06-14T02:44:04;3.00;;;2.33;;
18947;SDS011;9607;51.600;7.558;2023-06-14T02:46:34;5.47;;;2.80;;
18947;SDS011;9607;51.600;7.558;2023-06-14T02:49:01;3.83;;;2.60;;
18947;SDS011;9607;51.600;7.558;2023-06-14T02:51:28;3.80;;;2.70;;
18947;SDS011;9607;51.600;7.558;2023-06-14T02:53:55;4.35;;;2.58;;
18947;SDS011;9607;51.600;7.558;2023-06-14T02:56:22;4.30;;;2.70;;
18947;SDS011;9607;51.600;7.558;2023-06-14T02:58:50;6.28;;;2.70;;
18947;SDS011;9607;51.600;7.558;2023-06-14T03:01:18;5.45;;;2.25;;
18947;SDS011;9607;51.600;7.558;2023-06-14T03:03:48;2.67;;;2.20;;
18947;SDS011;9607;51.600;7.558;2023-06-14T03:06:14;2.83;;;2.53;;
18947;SDS011;9607;51.600;7.558;2023-06-14T03:08:41;5.47;;;2.22;;
18947;SDS011;9607;51.600;7.558;2023-06-14T03:11:09;4.85;;;2.70;;
18947;SDS011;9607;51.600;7.558;2023-06-14T03:13:35;3.95;;;2.08;;
18947;SDS011;9607;51.600;7.558;2023-06-14T03:16:03;6.15;;;2.78;;
18947;SDS011;9607;51.600;7.558;2023-06-14T03:18:32;4.07;;;2.65;;
18947;SDS011;9607;51.600;7.558;2023-06-14T03:21:01;2.88;;;2.40;;
18947;SDS011;9607;51.600;7.558;2023-06-14T03:23:29;5.15;;;2.72;;
18947;SDS011;9607;51.600;7.558;2023-06-14T03:25:56;2.70;;;2.17;;
18947;SDS011;9607;51.600;7.558;2023-06-14T03:28:23;2.33;;;2.10;;
18947;SDS011;9607;51.600;7.558;2023-06-14T03:30:50;1.83;;;1.73;;
18947;SDS011;9607;51.600;7.558;2023-06-14T03:33:17;2.20;;;2.00;;
18947;SDS011;9607;51.600;7.558;2023-06-14T03:35:44;3.30;;;2.10;;
18947;SDS011;9607;51.600;7.558;2023-06-14T03:38:13;7.13;;;2.38;;
18947;SDS011;9607;51.600;7.558;2023-06-14T03:40:40;2.63;;;2.35;;
18947;SDS011;9607;51.600;7.558;2023-06-14T03:43:07;3.53;;;2.60;;
18947;SDS011;9607;51.600;7.558;2023-06-14T03:45:34;4.07;;;2.65;;
18947;SDS011;9607;51.600;7.558;2023-06-14T03:48:01;4.07;;;2.78;;
18947;SDS011;9607;51.600;7.558;2023-06-14T03:50:28;5.55;;;2.30;;
18947;SDS011;9607;51.600;7.558;2023-06-14T03:52:55;7.82;;;2.63;;
18947;SDS011;9607;51.600;7.558;2023-06-14T03:55:23;3.75;;;2.60;;
18947;SDS011;9607;51.600;7.558;2023-06-14T03:57:52;3.80;;;2.58;;
18947;SDS011;9607;51.600;7.558;2023-06-14T04:00:19;6.80;;;2.20;;
18947;SDS011;9607;51.600;7.558;2023-06-14T04:02:46;4.20;;;2.65;;
18947;SDS011;9607;51.600;7.558;2023-06-14T04:05:13;2.75;;;2.33;;
18947;SDS011;9607;51.600;7.558;2023-06-14T04:07:41;6.18;;;2.72;;
18947;SDS011;9607;51.600;7.558;2023-06-14T04:10:10;7.25;;;2.58;;
18947;SDS011;9607;51.600;7.558;2023-06-14T04:12:39;6.53;;;2.42;;
18947;SDS011;9607;51.600;7.558;2023-06-14T04:15:06;5.00;;;2.80;;
18947;SDS011;9607;51.600;7.558;2023-06-14T04:17:34;5.22;;;2.85;;
18947;SDS011;9607;51.600;7.558;2023-06-14T04:20:02;2.97;;;2.67;;
18947;SDS011;9607;51.600;7.558;2023-06-14T04:22:31;4.20;;;2.47;;
18947;SDS011;9607;51.600;7.558;2023-06-14T04:24:59;5.30;;;2.47;;
18947;SDS011;9607;51.600;7.558;2023-06-14T04:27:26;2.85;;;2.28;;
18947;SDS011;9607;51.600;7.558;2023-06-14T04:29:57;2.50;;;2.30;;
18947;SDS011;9607;51.600;7.558;2023-06-14T04:32:27;3.33;;;2.08;;
18947;SDS011;9607;51.600;7.558;2023-06-14T04:34:58;5.25;;;2.58;;
18947;SDS011;9607;51.600;7.558;2023-06-14T04:37:27;6.97;;;2.80;;
18947;SDS011;9607;51.600;7.558;2023-06-14T04:39:55;3.05;;;2.50;;
18947;SDS011;9607;51.600;7.558;2023-06-14T04:42:22;5.32;;;2.25;;
18947;SDS011;9607;51.600;7.558;2023-06-14T04:44:57;3.70;;;2.30;;
18947;SDS011;9607;51.600;7.558;2023-06-14T04:47:24;7.55;;;2.30;;
18947;SDS011;9607;51.600;7.558;2023-06-14T04:49:55;4.22;;;2.45;;
18947;SDS011;9607;51.600;7.558;2023-06-14T04:52:23;4.85;;;2.45;;
18947;SDS011;9607;51.600;7.558;2023-06-14T04:54:51;3.35;;;2.20;;
18947;SDS011;9607;51.600;7.558;2023-06-14T04:57:19;6.45;;;2.80;;
18947;SDS011;9607;51.600;7.558;2023-06-14T04:59:47;3.60;;;2.15;;
18947;SDS011;9607;51.600;7.558;2023-06-14T05:02:21;3.78;;;2.28;;
18947;SDS011;9607;51.600;7.558;2023-06-14T05:04:49;5.30;;;2.33;;
18947;SDS011;9607;51.600;7.558;2023-06-14T05:07:16;2.42;;;1.88;;
18947;SDS011;9607;51.600;7.558;2023-06-14T05:09:44;2.85;;;2.17;;
18947;SDS011;9607;51.600;7.558;2023-06-14T05:12:11;2.85;;;2.28;;
18947;SDS011;9607;51.600;7.558;2023-06-14T05:14:38;3.35;;;2.40;;
18947;SDS011;9607;51.600;7.558;2023-06-14T05:17:05;3.17;;;2.20;;
18947;SDS011;9607;51.600;7.558;2023-06-14T05:19:34;6.15;;;2.70;;
18947;SDS011;9607;51.600;7.558;2023-06-14T05:22:01;14.15;;;2.80;;
18947;SDS011;9607;51.600;7.558;2023-06-14T05:24:28;3.28;;;1.85;;
18947;SDS011;9607;51.600;7.558;2023-06-14T05:26:55;4.40;;;2.17;;
18947;SDS011;9607;51.600;7.558;2023-06-14T05:29:22;6.00;;;2.20;;
18947;SDS011;9607;51.600;7.558;2023-06-14T05:31:49;5.55;;;2.08;;
18947;SDS011;9607;51.600;7.558;2023-06-14T05:34:16;3.22;;;2.15;;
18947;SDS011;9607;51.600;7.558;2023-06-14T05:36:45;4.28;;;2.30;;
18947;SDS011;9607;51.600;7.558;2023-06-14T05:39:12;2.17;;;1.95;;
18947;SDS011;9607;51.600;7.558;2023-06-14T05:41:39;5.10;;;2.35;;
18947;SDS011;9607;51.600;7.558;2023-06-14T05:44:06;3.42;;;2.10;;
18947;SDS011;9607;51.600;7.558;2023-06-14T05:46:35;3.28;;;2.30;;
18947;SDS011;9607;51.600;7.558;2023-06-14T05:49:05;5.45;;;2.28;;
18947;SDS011;9607;51.600;7.558;2023-06-14T05:51:32;3.53;;;2.30;;
18947;SDS011;9607;51.600;7.558;2023-06-14T05:54:00;6.32;;;2.72;;
18947;SDS011;9607;51.600;7.558;2023-06-14T05:56:27;5.53;;;2.80;;
18947;SDS011;9607;51.600;7.558;2023-06-14T05:58:54;3.95;;;2.10;;
18947;SDS011;9607;51.600;7.558;2023-06-14T06:01:20;5.13;;;2.42;;
18947;SDS011;9607;51.600;7.558;2023-06-14T06:03:47;4.55;;;2.35;;
18947;SDS011;9607;51.600;7.558;2023-06-14T06:06:14;5.93;;;2.50;;
18947;SDS011;9607;51.600;7.558;2023-06-14T06:08:42;9.73;;;2.70;;
18947;SDS011;9607;51.600;7.558;2023-06-14T06:11:10;4.10;;;2.38;;
18947;SDS011;9607;51.600;7.558;2023-06-14T06:13:37;5.00;;;2.40;;
18947;SDS011;9607;51.600;7.558;2023-06-14T06:16:05;5.88;;;2.00;;
18947;SDS011;9607;51.600;7.558;2023-06-14T06:18:32;5.38;;;2.22;;
18947;SDS011;9607;51.600;7.558;2023-06-14T06:20:59;5.20;;;2.55;;
18947;SDS011;9607;51.600;7.558;2023-06-14T06:23:26;9.82;;;2.20;;
18947;SDS011;9607;51.600;7.558;2023-06-14T06:25:53;3.35;;;2.13;;
18947;SDS011;9607;51.600;7.558;2023-06-14T06:28:21;3.28;;;2.33;;
18947;SDS011;9607;51.600;7.558;2023-06-14T06:30:48;3.22;;;2.00;;
18947;SDS011;9607;51.600;7.558;2023-06-14T06:33:15;4.53;;;2.10;;
18947;SDS011;9607;51.600;7.558;2023-06-14T06:35:42;10.60;;;2.53;;
18947;SDS011;9607;51.600;7.558;2023-06-14T06:38:09;3.80;;;1.90;;
18947;SDS011;9607;51.600;7.558;2023-06-14T06:40:36;3.55;;;2.30;;
18947;SDS011;9607;51.600;7.558;2023-06-14T06:43:03;4.88;;;2.40;;
18947;SDS011;9607;51.600;7.558;2023-06-14T06:45:31;5.13;;;2.08;;
18947;SDS011;9607;51.600;7.558;2023-06-14T06:47:58;4.07;;;2.38;;
18947;SDS011;9607;51.600;7.558;2023-06-14T06:50:25;5.40;;;2.20;;
18947;SDS011;9607;51.600;7.558;2023-06-14T06:52:52;11.48;;;2.58;;
18947;SDS011;9607;51.600;7.558;2023-06-14T06:55:19;7.63;;;2.10;;
18947;SDS011;9607;51.600;7.558;2023-06-14T06:57:46;4.32;;;2.30;;
18947;SDS011;9607;51.600;7.558;2023-06-14T07:00:15;4.85;;;2.28;;
18947;SDS011;9607;51.600;7.558;2023-06-14T07:02:44;5.20;;;3.42;;
18947;SDS011;9607;51.600;7.558;2023-06-14T07:05:11;5.13;;;2.30;;
18947;SDS011;9607;51.600;7.558;2023-06-14T07:07:37;3.63;;;2.00;;
18947;SDS011;9607;51.600;7.558;2023-06-14T07:10:04;7.13;;;1.85;;
18947;SDS011;9607;51.600;7.558;2023-06-14T07:12:32;5.07;;;1.95;;
18947;SDS011;9607;51.600;7.558;2023-06-14T07:15:04;7.63;;;1.95;;
18947;SDS011;9607;51.600;7.558;2023-06-14T07:17:32;18.83;;;2.72;;
18947;SDS011;9607;51.600;7.558;2023-06-14T07:20:00;4.38;;;2.08;;
18947;SDS011;9607;51.600;7.558;2023-06-14T07:22:37;6.13;;;1.95;;
18947;SDS011;9607;51.600;7.558;2023-06-14T07:25:05;3.15;;;1.92;;
18947;SDS011;9607;51.600;7.558;2023-06-14T07:27:33;1.95;;;1.65;;
18947;SDS011;9607;51.600;7.558;2023-06-14T07:30:00;4.18;;;2.05;;
18947;SDS011;9607;51.600;7.558;2023-06-14T07:32:27;2.13;;;1.80;;
18947;SDS011;9607;51.600;7.558;2023-06-14T07:34:54;3.13;;;1.63;;
18947;SDS011;9607;51.600;7.558;2023-06-14T07:37:22;2.10;;;1.70;;
18947;SDS011;9607;51.600;7.558;2023-06-14T07:39:49;1.83;;;1.38;;
18947;SDS011;9607;51.600;7.558;2023-06-14T07:42:16;2.63;;;1.40;;
18947;SDS011;9607;51.600;7.558;2023-06-14T07:44:42;2.05;;;1.10;;
18947;SDS011;9607;51.600;7.558;2023-06-14T07:47:10;3.15;;;1.40;;
18947;SDS011;9607;51.600;7.558;2023-06-14T07:49:37;1.30;;;1.20;;
18947;SDS011;9607;51.600;7.558;2023-06-14T07:52:04;2.42;;;1.30;;
18947;SDS011;9607;51.600;7.558;2023-06-14T07:54:36;3.75;;;1.40;;
18947;SDS011;9607;51.600;7.558;2023-06-14T07:57:06;7.93;;;1.40;;
18947;SDS011;9607;51.600;7.558;2023-06-14T07:59:33;4.03;;;1.55;;
18947;SDS011;9607;51.600;7.558;2023-06-14T08:02:00;2.95;;;1.08;;
18947;SDS011;9607;51.600;7.558;2023-06-14T08:04:27;1.17;;;1.08;;
18947;SDS011;9607;51.600;7.558;2023-06-14T08:06:54;3.33;;;1.25;;
18947;SDS011;9607;51.600;7.558;2023-06-14T08:09:20;1.25;;;1.08;;
18947;SDS011;9607;51.600;7.558;2023-06-14T08:11:49;4.07;;;1.05;;
18947;SDS011;9607;51.600;7.558;2023-06-14T08:14:16;1.15;;;1.08;;
18947;SDS011;9607;51.600;7.558;2023-06-14T08:16:43;1.45;;;0.90;;
18947;SDS011;9607;51.600;7.558;2023-06-14T08:19:09;3.70;;;1.10;;
18947;SDS011;9607;51.600;7.558;2023-06-14T08:21:36;3.00;;;1.20;;
18947;SDS011;9607;51.600;7.558;2023-06-14T08:24:03;4.00;;;1.08;;
18947;SDS011;9607;51.600;7.558;2023-06-14T08:26:31;19.98;;;2.22;;
18947;SDS011;9607;51.600;7.558;2023-06-14T08:28:59;1.05;;;0.90;;
18947;SDS011;9607;51.600;7.558;2023-06-14T08:31:26;1.85;;;1.05;;
18947;SDS011;9607;51.600;7.558;2023-06-14T08:33:53;1.08;;;0.63;;
18947;SDS011;9607;51.600;7.558;2023-06-14T08:36:19;3.63;;;1.05;;
18947;SDS011;9607;51.600;7.558;2023-06-14T08:38:47;4.78;;;1.08;;
18947;SDS011;9607;51.600;7.558;2023-06-14T08:41:16;1.58;;;1.00;;
18947;SDS011;9607;51.600;7.558;2023-06-14T08:43:47;0.82;;;0.82;;
18947;SDS011;9607;51.600;7.558;2023-06-14T08:46:16;3.78;;;0.90;;
18947;SDS011;9607;51.600;7.558;2023-06-14T08:48:46;1.27;;;1.08;;
18947;SDS011;9607;51.600;7.558;2023-06-14T08:51:13;0.82;;;0.60;;
18947;SDS011;9607;51.600;7.558;2023-06-14T08:53:41;11.30;;;1.58;;
18947;SDS011;9607;51.600;7.558;2023-06-14T08:56:10;1.35;;;0.90;;
18947;SDS011;9607;51.600;7.558;2023-06-14T08:58:40;0.98;;;0.68;;
18947;SDS011;9607;51.600;7.558;2023-06-14T09:01:10;15.98;;;1.27;;
18947;SDS011;9607;51.600;7.558;2023-06-14T09:03:40;2.42;;;0.40;;
18947;SDS011;9607;51.600;7.558;2023-06-14T09:06:08;2.38;;;0.70;;
18947;SDS011;9607;51.600;7.558;2023-06-14T09:08:39;3.72;;;0.77;;
18947;SDS011;9607;51.600;7.558;2023-06-14T09:11:06;0.63;;;0.63;;
18947;SDS011;9607;51.600;7.558;2023-06-14T09:13:34;2.00;;;0.73;;
18947;SDS011;9607;51.600;7.558;2023-06-14T09:16:01;7.18;;;0.90;;
18947;SDS011;9607;51.600;7.558;2023-06-14T09:18:35;37.78;;;4.10;;
18947;SDS011;9607;51.600;7.558;2023-06-14T09:21:04;2.65;;;0.93;;
18947;SDS011;9607;51.600;7.558;2023-06-14T09:23:33;3.30;;;0.85;;
18947;SDS011;9607;51.600;7.558;2023-06-14T09:26:06;3.60;;;0.70;;
18947;SDS011;9607;51.600;7.558;2023-06-14T09:28:34;2.75;;;0.90;;
18947;SDS011;9607;51.600;7.558;2023-06-14T09:31:00;2.42;;;0.73;;
18947;SDS011;9607;51.600;7.558;2023-06-14T09:33:27;1.52;;;1.20;;
18947;SDS011;9607;51.600;7.558;2023-06-14T09:35:54;1.55;;;0.75;;
18947;SDS011;9607;51.600;7.558;2023-06-14T09:38:22;2.08;;;0.90;;
18947;SDS011;9607;51.600;7.558;2023-06-14T09:40:51;3.13;;;0.75;;
18947;SDS011;9607;51.600;7.558;2023-06-14T09:43:18;0.98;;;0.73;;
18947;SDS011;9607;51.600;7.558;2023-06-14T09:45:47;5.55;;;0.93;;
18947;SDS011;9607;51.600;7.558;2023-06-14T09:48:14;3.28;;;1.13;;
18947;SDS011;9607;51.600;7.558;2023-06-14T09:50:43;4.55;;;0.90;;
18947;SDS011;9607;51.600;7.558;2023-06-14T09:53:12;2.20;;;0.80;;
18947;SDS011;9607;51.600;7.558;2023-06-14T09:55:41;1.55;;;0.85;;
18947;SDS011;9607;51.600;7.558;2023-06-14T09:58:09;1.23;;;0.90;;
18947;SDS011;9607;51.600;7.558;2023-06-14T10:00:38;1.83;;;0.70;;
18947;SDS011;9607;51.600;7.558;2023-06-14T10:03:09;1.10;;;0.73;;
18947;SDS011;9607;51.600;7.558;2023-06-14T10:05:39;1.80;;;0.90;;
18947;SDS011;9607;51.600;7.558;2023-06-14T10:08:08;4.07;;;1.02;;
18947;SDS011;9607;51.600;7.558;2023-06-14T10:10:38;92.10;;;8.05;;
18947;SDS011;9607;51.600;7.558;2023-06-14T10:13:07;3.28;;;1.23;;
18947;SDS011;9607;51.600;7.558;2023-06-14T10:15:35;1.27;;;1.08;;
18947;SDS011;9607;51.600;7.558;2023-06-14T10:18:09;1.75;;;0.82;;
18947;SDS011;9607;51.600;7.558;2023-06-14T10:20:48;2.60;;;0.90;;
18947;SDS011;9607;51.600;7.558;2023-06-14T10:23:22;5.00;;;1.23;;
18947;SDS011;9607;51.600;7.558;2023-06-14T10:25:50;2.72;;;0.90;;
18947;SDS011;9607;51.600;7.558;2023-06-14T10:28:24;1.23;;;0.77;;
18947;SDS011;9607;51.600;7.558;2023-06-14T10:31:05;3.20;;;0.75;;
18947;SDS011;9607;51.600;7.558;2023-06-14T10:33:33;2.00;;;0.98;;
18947;SDS011;9607;51.600;7.558;2023-06-14T10:36:07;8.52;;;1.27;;
18947;SDS011;9607;51.600;7.558;2023-06-14T10:38:34;2.40;;;1.10;;
18947;SDS011;9607;51.600;7.558;2023-06-14T10:41:03;1.33;;;1.23;;
18947;SDS011;9607;51.600;7.558;2023-06-14T10:43:33;2.83;;;1.10;;
18947;SDS011;9607;51.600;7.558;2023-06-14T10:46:15;3.17;;;1.10;;
18947;SDS011;9607;51.600;7.558;2023-06-14T10:48:43;1.73;;;1.52;;
18947;SDS011;9607;51.600;7.558;2023-06-14T10:51:17;4.07;;;0.90;;
18947;SDS011;9607;51.600;7.558;2023-06-14T10:53:46;14.40;;;1.88;;
18947;SDS011;9607;51.600;7.558;2023-06-14T10:59:03;6.18;;;1.60;;
18947;SDS011;9607;51.600;7.558;2023-06-14T11:01:35;2.03;;;1.30;;
18947;SDS011;9607;51.600;7.558;2023-06-14T11:04:08;2.72;;;1.50;;
18947;SDS011;9607;51.600;7.558;2023-06-14T11:06:45;3.30;;;1.45;;
18947;SDS011;9607;51.600;7.558;2023-06-14T11:09:30;1.70;;;1.45;;
18947;SDS011;9607;51.600;7.558;2023-06-14T11:12:15;3.40;;;1.30;;
18947;SDS011;9607;51.600;7.558;2023-06-14T11:14:46;2.50;;;1.30;;
18947;SDS011;9607;51.600;7.558;2023-06-14T11:17:13;1.30;;;1.20;;
18947;SDS011;9607;51.600;7.558;2023-06-14T11:19:40;1.30;;;1.20;;
18947;SDS011;9607;51.600;7.558;2023-06-14T11:22:07;2.00;;;1.15;;
18947;SDS011;9607;51.600;7.558;2023-06-14T11:24:34;2.35;;;1.48;;
18947;SDS011;9607;51.600;7.558;2023-06-14T11:27:01;1.83;;;1.42;;
18947;SDS011;9607;51.600;7.558;2023-06-14T11:29:29;2.72;;;1.40;;
18947;SDS011;9607;51.600;7.558;2023-06-14T11:31:58;2.42;;;1.17;;
18947;SDS011;9607;51.600;7.558;2023-06-14T11:34:25;3.60;;;1.52;;
18947;SDS011;9607;51.600;7.558;2023-06-14T11:36:52;3.47;;;1.42;;
18947;SDS011;9607;51.600;7.558;2023-06-14T11:39:23;2.53;;;1.48;;
18947;SDS011;9607;51.600;7.558;2023-06-14T11:41:52;3.88;;;1.40;;
18947;SDS011;9607;51.600;7.558;2023-06-14T11:44:20;3.25;;;1.42;;
18947;SDS011;9607;51.600;7.558;2023-06-14T11:46:47;3.17;;;1.30;;
18947;SDS011;9607;51.600;7.558;2023-06-14T11:49:17;2.28;;;1.20;;
18947;SDS011;9607;51.600;7.558;2023-06-14T11:51:44;2.55;;;1.30;;
18947;SDS011;9607;51.600;7.558;2023-06-14T11:54:11;1.63;;;1.30;;
18947;SDS011;9607;51.600;7.558;2023-06-14T11:56:38;5.32;;;1.50;;
18947;SDS011;9607;51.600;7.558;2023-06-14T11:59:06;1.42;;;1.33;;
18947;SDS011;9607;51.600;7.558;2023-06-14T12:01:35;4.15;;;1.20;;
18947;SDS011;9607;51.600;7.558;2023-06-14T12:04:04;2.08;;;1.30;;
18947;SDS011;9607;51.600;7.558;2023-06-14T12:06:35;4.00;;;1.40;;
18947;SDS011;9607;51.600;7.558;2023-06-14T12:09:04;1.50;;;1.40;;
18947;SDS011;9607;51.600;7.558;2023-06-14T12:11:33;2.58;;;1.15;;
18947;SDS011;9607;51.600;7.558;2023-06-14T12:14:02;2.28;;;1.30;;
18947;SDS011;9607;51.600;7.558;2023-06-14T12:16:30;4.65;;;1.52;;
18947;SDS011;9607;51.600;7.558;2023-06-14T12:19:09;1.88;;;1.23;;
18947;SDS011;9607;51.600;7.558;2023-06-14T12:21:40;3.00;;;1.20;;
18947;SDS011;9607;51.600;7.558;2023-06-14T12:24:08;2.22;;;1.20;;
18947;SDS011;9607;51.600;7.558;2023-06-14T12:26:37;3.05;;;1.20;;
18947;SDS011;9607;51.600;7.558;2023-06-14T12:29:08;1.25;;;1.15;;
18947;SDS011;9607;51.600;7.558;2023-06-14T12:31:35;3.78;;;1.20;;
18947;SDS011;9607;51.600;7.558;2023-06-14T12:34:02;3.55;;;1.40;;
18947;SDS011;9607;51.600;7.558;2023-06-14T12:36:29;3.17;;;1.20;;
18947;SDS011;9607;51.600;7.558;2023-06-14T12:38:58;1.40;;;1.30;;
18947;SDS011;9607;51.600;7.558;2023-06-14T12:41:25;6.85;;;1.48;;
18947;SDS011;9607;51.600;7.558;2023-06-14T12:43:52;4.00;;;1.42;;
18947;SDS011;9607;51.600;7.558;2023-06-14T12:46:19;4.22;;;1.30;;
18947;SDS011;9607;51.600;7.558;2023-06-14T12:48:46;4.03;;;1.42;;
18947;SDS011;9607;51.600;7.558;2023-06-14T12:51:13;1.98;;;1.23;;
18947;SDS011;9607;51.600;7.558;2023-06-14T12:53:39;5.35;;;1.30;;
18947;SDS011;9607;51.600;7.558;2023-06-14T12:56:08;1.10;;;1.00;;
18947;SDS011;9607;51.600;7.558;2023-06-14T12:58:35;4.78;;;1.75;;
18947;SDS011;9607;51.600;7.558;2023-06-14T13:01:01;1.83;;;1.30;;
18947;SDS011;9607;51.600;7.558;2023-06-14T13:03:28;19.48;;;2.45;;
18947;SDS011;9607;51.600;7.558;2023-06-14T13:05:55;3.25;;;1.30;;
18947;SDS011;9607;51.600;7.558;2023-06-14T13:08:22;2.35;;;1.38;;
18947;SDS011;9607;51.600;7.558;2023-06-14T13:10:49;2.15;;;1.30;;
18947;SDS011;9607;51.600;7.558;2023-06-14T13:13:17;1.60;;;1.10;;
18947;SDS011;9607;51.600;7.558;2023-06-14T13:15:44;3.92;;;1.20;;
18947;SDS011;9607;51.600;7.558;2023-06-14T13:18:11;2.88;;;1.38;;
18947;SDS011;9607;51.600;7.558;2023-06-14T13:20:39;1.95;;;1.23;;
18947;SDS011;9607;51.600;7.558;2023-06-14T13:23:06;1.55;;;1.40;;
18947;SDS011;9607;51.600;7.558;2023-06-14T13:25:33;4.43;;;1.38;;
18947;SDS011;9607;51.600;7.558;2023-06-14T13:28:00;4.05;;;1.50;;
18947;SDS011;9607;51.600;7.558;2023-06-14T13:30:28;4.40;;;1.30;;
18947;SDS011;9607;51.600;7.558;2023-06-14T13:32:55;2.25;;;1.00;;
18947;SDS011;9607;51.600;7.558;2023-06-14T13:35:22;1.48;;;1.38;;
18947;SDS011;9607;51.600;7.558;2023-06-14T13:37:50;1.50;;;1.35;;
18947;SDS011;9607;51.600;7.558;2023-06-14T13:40:17;1.65;;;1.45;;
18947;SDS011;9607;51.600;7.558;2023-06-14T13:42:44;1.65;;;1.40;;
18947;SDS011;9607;51.600;7.558;2023-06-14T13:45:15;3.80;;;1.50;;
18947;SDS011;9607;51.600;7.558;2023-06-14T13:47:44;3.15;;;1.42;;
18947;SDS011;9607;51.600;7.558;2023-06-14T13:50:13;1.35;;;1.25;;
18947;SDS011;9607;51.600;7.558;2023-06-14T13:52:41;2.05;;;1.20;;
18947;SDS011;9607;51.600;7.558;2023-06-14T13:55:08;3.58;;;1.70;;
18947;SDS011;9607;51.600;7.558;2023-06-14T13:57:35;1.67;;;1.30;;
18947;SDS011;9607;51.600;7.558;2023-06-14T14:00:02;2.22;;;1.52;;
18947;SDS011;9607;51.600;7.558;2023-06-14T14:02:30;1.45;;;1.35;;
18947;SDS011;9607;51.600;7.558;2023-06-14T14:04:58;3.33;;;1.20;;
18947;SDS011;9607;51.600;7.558;2023-06-14T14:07:25;1.58;;;1.20;;
18947;SDS011;9607;51.600;7.558;2023-06-14T14:09:53;1.63;;;1.40;;
18947;SDS011;9607;51.600;7.558;2023-06-14T14:12:22;2.88;;;1.83;;
18947;SDS011;9607;51.600;7.558;2023-06-14T14:14:50;2.65;;;1.60;;
18947;SDS011;9607;51.600;7.558;2023-06-14T14:17:17;2.33;;;1.50;;
18947;SDS011;9607;51.600;7.558;2023-06-14T14:19:44;2.88;;;1.85;;
18947;SDS011;9607;51.600;7.558;2023-06-14T14:22:12;2.50;;;1.52;;
18947;SDS011;9607;51.600;7.558;2023-06-14T14:24:39;4.70;;;1.30;;
18947;SDS011;9607;51.600;7.558;2023-06-14T14:27:06;5.53;;;1.60;;
18947;SDS011;9607;51.600;7.558;2023-06-14T14:29:33;2.13;;;1.50;;
18947;SDS011;9607;51.600;7.558;2023-06-14T14:32:00;1.90;;;1.33;;
18947;SDS011;9607;51.600;7.558;2023-06-14T14:34:27;1.40;;;1.30;;
18947;SDS011;9607;51.600;7.558;2023-06-14T14:36:54;2.67;;;1.40;;
18947;SDS011;9607;51.600;7.558;2023-06-14T14:39:22;3.40;;;1.42;;
18947;SDS011;9607;51.600;7.558;2023-06-14T14:41:49;1.40;;;1.30;;
18947;SDS011;9607;51.600;7.558;2023-06-14T14:44:17;1.80;;;1.40;;
18947;SDS011;9607;51.600;7.558;2023-06-14T14:46:44;1.52;;;1.42;;
18947;SDS011;9607;51.600;7.558;2023-06-14T14:49:11;3.17;;;1.50;;
18947;SDS011;9607;51.600;7.558;2023-06-14T14:51:38;2.95;;;1.50;;
18947;SDS011;9607;51.600;7.558;2023-06-14T14:54:05;1.85;;;1.58;;
18947;SDS011;9607;51.600;7.558;2023-06-14T14:56:33;6.85;;;1.58;;
18947;SDS011;9607;51.600;7.558;2023-06-14T14:59:02;2.13;;;1.10;;
18947;SDS011;9607;51.600;7.558;2023-06-14T15:01:30;2.13;;;1.55;;
18947;SDS011;9607;51.600;7.558;2023-06-14T15:03:57;1.65;;;1.38;;
18947;SDS011;9607;51.600;7.558;2023-06-14T15:06:23;3.58;;;1.10;;
18947;SDS011;9607;51.600;7.558;2023-06-14T15:08:51;12.98;;;2.15;;